createdAt,value
2018-05-23T00:00:13.831Z,1012.89
2018-05-23T00:01:13.755Z,1012.88
2018-05-23T00:02:13.693Z,1012.88
2018-05-23T00:03:13.594Z,1012.88
2018-05-23T00:04:13.525Z,1012.83
2018-05-23T00:05:13.444Z,1012.82
2018-05-23T00:06:13.369Z,1012.80
2018-05-23T00:07:13.282Z,1012.83
2018-05-23T00:08:13.206Z,1012.79
2018-05-23T00:09:13.135Z,1012.80
2018-05-23T00:10:13.044Z,1012.83
2018-05-23T00:11:12.970Z,1012.83
2018-05-23T00:12:12.895Z,1012.83
2018-05-23T00:13:12.812Z,1012.86
2018-05-23T00:14:12.732Z,1012.87
2018-05-23T00:15:12.657Z,1012.91
2018-05-23T00:16:12.583Z,1012.89
2018-05-23T00:17:12.495Z,1012.90
2018-05-23T00:18:12.426Z,1012.95
2018-05-23T00:19:12.345Z,1012.96
2018-05-23T00:20:12.258Z,1012.94
2018-05-23T00:21:12.185Z,1012.96
2018-05-23T00:22:12.108Z,1012.96
2018-05-23T00:23:12.024Z,1012.92
2018-05-23T00:24:11.946Z,1012.93
2018-05-23T00:25:11.872Z,1012.96
2018-05-23T00:26:11.796Z,1012.95
2018-05-23T00:27:11.708Z,1012.95
2018-05-23T00:28:11.634Z,1012.96
2018-05-23T00:29:11.558Z,1012.95
2018-05-23T00:30:11.484Z,1012.95
2018-05-23T00:31:11.399Z,1012.92
2018-05-23T00:32:11.323Z,1012.95
2018-05-23T00:33:11.237Z,1012.91
2018-05-23T00:34:11.159Z,1012.93
2018-05-23T00:35:11.089Z,1012.91
2018-05-23T00:36:10.999Z,1012.87
2018-05-23T00:37:10.923Z,1012.89
2018-05-23T00:38:10.848Z,1012.87
2018-05-23T00:39:10.774Z,1012.89
2018-05-23T00:40:10.685Z,1012.92
2018-05-23T00:41:10.614Z,1012.97
2018-05-23T00:42:10.542Z,1012.97
2018-05-23T00:43:10.449Z,1012.93
2018-05-23T00:44:10.373Z,1013.01
2018-05-23T00:45:10.304Z,1013.04
2018-05-23T00:46:10.211Z,1013.00
2018-05-23T00:47:10.135Z,1013.01
2018-05-23T00:48:10.077Z,1013.03
2018-05-23T00:49:09.975Z,1013.03
2018-05-23T00:50:09.904Z,1013.02
2018-05-23T00:51:09.829Z,1013.00
2018-05-23T00:52:09.737Z,1013.01
2018-05-23T00:53:09.662Z,1013.00
2018-05-23T00:54:09.587Z,1012.99
2018-05-23T00:55:09.511Z,1012.98
2018-05-23T00:56:09.428Z,1012.97
2018-05-23T00:57:09.350Z,1012.98
2018-05-23T00:58:09.275Z,1013.00
2018-05-23T00:59:09.187Z,1012.98
2018-05-23T01:00:09.112Z,1013.01
2018-05-23T01:01:09.050Z,1013.06
2018-05-23T01:02:08.951Z,1013.01
2018-05-23T01:03:08.875Z,1013.06
2018-05-23T01:04:08.803Z,1013.08
2018-05-23T01:05:08.713Z,1013.07
2018-05-23T01:06:08.638Z,1013.08
2018-05-23T01:07:08.577Z,1013.10
2018-05-23T01:08:08.478Z,1013.14
2018-05-23T01:09:08.405Z,1013.17
2018-05-23T01:10:08.327Z,1013.11
2018-05-23T01:11:08.239Z,1013.18
2018-05-23T01:12:08.178Z,1013.17
2018-05-23T01:13:08.089Z,1013.16
2018-05-23T01:14:08.014Z,1013.18
2018-05-23T01:15:07.928Z,1013.15
2018-05-23T01:16:07.852Z,1013.17
2018-05-23T01:17:07.777Z,1013.20
2018-05-23T01:18:07.693Z,1013.22
2018-05-23T01:19:07.614Z,1013.18
2018-05-23T01:20:07.540Z,1013.16
2018-05-23T01:21:07.453Z,1013.18
2018-05-23T01:22:07.378Z,1013.21
2018-05-23T01:23:07.291Z,1013.18
2018-05-23T01:24:07.215Z,1013.24
2018-05-23T01:25:07.141Z,1013.21
2018-05-23T01:26:07.079Z,1013.24
2018-05-23T01:27:06.979Z,1013.26
2018-05-23T01:28:06.907Z,1013.26
2018-05-23T01:29:06.831Z,1013.22
2018-05-23T01:30:06.744Z,1013.26
2018-05-23T01:31:06.666Z,1013.23
2018-05-23T01:32:06.591Z,1013.24
2018-05-23T01:33:06.505Z,1013.26
2018-05-23T01:34:06.429Z,1013.29
2018-05-23T01:35:06.343Z,1013.26
2018-05-23T01:36:06.266Z,1013.30
2018-05-23T01:37:06.192Z,1013.33
2018-05-23T01:38:06.123Z,1013.34
2018-05-23T01:39:06.030Z,1013.38
2018-05-23T01:40:05.957Z,1013.41
2018-05-23T01:41:05.880Z,1013.41
2018-05-23T01:42:05.791Z,1013.40
2018-05-23T01:43:05.717Z,1013.40
2018-05-23T01:44:05.642Z,1013.37
2018-05-23T01:45:05.555Z,1013.34
2018-05-23T01:46:05.481Z,1013.35
2018-05-23T01:47:05.394Z,1013.34
2018-05-23T01:48:05.318Z,1013.35
2018-05-23T01:49:05.242Z,1013.32
2018-05-23T01:50:05.157Z,1013.34
2018-05-23T01:51:05.081Z,1013.34
2018-05-23T01:52:05.015Z,1013.36
2018-05-23T01:53:04.919Z,1013.34
2018-05-23T01:54:04.844Z,1013.37
2018-05-23T01:55:04.782Z,1013.35
2018-05-23T01:56:04.686Z,1013.33
2018-05-23T01:57:04.612Z,1013.38
2018-05-23T01:58:04.536Z,1013.41
2018-05-23T01:59:04.443Z,1013.36
2018-05-23T02:00:04.382Z,1013.36
2018-05-23T02:01:04.362Z,1013.39
2018-05-23T02:02:04.214Z,1013.36
2018-05-23T02:03:04.133Z,1013.39
2018-05-23T02:04:04.058Z,1013.36
2018-05-23T02:05:03.988Z,1013.34
2018-05-23T02:06:03.895Z,1013.37
2018-05-23T02:07:03.820Z,1013.33
2018-05-23T02:08:03.745Z,1013.34
2018-05-23T02:09:03.658Z,1013.34
2018-05-23T02:10:03.572Z,1013.33
2018-05-23T02:11:03.508Z,1013.33
2018-05-23T02:12:03.421Z,1013.33
2018-05-23T02:13:03.334Z,1013.31
2018-05-23T02:14:03.270Z,1013.31
2018-05-23T02:15:03.184Z,1013.31
2018-05-23T02:16:03.108Z,1013.38
2018-05-23T02:17:03.024Z,1013.29
2018-05-23T02:18:02.946Z,1013.34
2018-05-23T02:19:02.859Z,1013.31
2018-05-23T02:20:02.785Z,1013.37
2018-05-23T02:21:02.709Z,1013.35
2018-05-23T02:22:02.621Z,1013.33
2018-05-23T02:23:02.546Z,1013.35
2018-05-23T02:24:02.460Z,1013.34
2018-05-23T02:25:02.384Z,1013.36
2018-05-23T02:26:02.311Z,1013.37
2018-05-23T02:27:02.221Z,1013.36
2018-05-23T02:28:02.147Z,1013.36
2018-05-23T02:29:02.074Z,1013.41
2018-05-23T02:30:01.993Z,1013.40
2018-05-23T02:31:01.911Z,1013.36
2018-05-23T02:32:01.837Z,1013.42
2018-05-23T02:33:01.761Z,1013.38
2018-05-23T02:34:01.672Z,1013.38
2018-05-23T02:35:01.588Z,1013.40
2018-05-23T02:36:01.511Z,1013.41
2018-05-23T02:37:01.436Z,1013.43
2018-05-23T02:38:01.350Z,1013.42
2018-05-23T02:39:01.273Z,1013.43
2018-05-23T02:40:01.213Z,1013.45
2018-05-23T02:41:01.111Z,1013.47
2018-05-23T02:42:01.037Z,1013.47
2018-05-23T02:43:00.962Z,1013.49
2018-05-23T02:44:00.873Z,1013.53
2018-05-23T02:45:00.803Z,1013.49
2018-05-23T02:46:00.728Z,1013.50
2018-05-23T02:47:00.678Z,1013.54
2018-05-23T02:48:00.562Z,1013.54
2018-05-23T02:49:00.474Z,1013.52
2018-05-23T02:50:00.399Z,1013.53
2018-05-23T02:51:00.324Z,1013.52
2018-05-23T02:52:00.239Z,1013.56
2018-05-23T02:53:00.162Z,1013.55
2018-05-23T02:54:00.089Z,1013.57
2018-05-23T02:55:00.000Z,1013.53
2018-05-23T02:55:59.930Z,1013.57
2018-05-23T02:56:59.850Z,1013.54
2018-05-23T02:58:41.889Z,1013.57
2018-05-23T02:59:41.800Z,1013.56
2018-05-23T03:00:41.726Z,1013.60
2018-05-23T03:01:41.651Z,1013.62
2018-05-23T03:02:41.563Z,1013.58
2018-05-23T03:03:41.489Z,1013.60
2018-05-23T03:04:41.402Z,1013.62
2018-05-23T03:05:41.331Z,1013.62
2018-05-23T03:06:41.250Z,1013.58
2018-05-23T03:07:41.164Z,1013.62
2018-05-23T03:08:41.098Z,1013.61
2018-05-23T03:09:41.014Z,1013.65
2018-05-23T03:10:40.926Z,1013.64
2018-05-23T03:11:40.856Z,1013.62
2018-05-23T03:12:40.777Z,1013.65
2018-05-23T03:13:40.693Z,1013.68
2018-05-23T03:14:40.615Z,1013.68
2018-05-23T03:15:40.527Z,1013.69
2018-05-23T03:16:40.452Z,1013.70
2018-05-23T03:17:40.378Z,1013.77
2018-05-23T03:18:40.290Z,1013.77
2018-05-23T03:19:40.215Z,1013.79
2018-05-23T03:20:40.141Z,1013.79
2018-05-23T03:21:40.052Z,1013.81
2018-05-23T03:22:39.977Z,1013.82
2018-05-23T03:23:39.891Z,1013.85
2018-05-23T03:24:39.816Z,1013.87
2018-05-23T03:25:39.741Z,1013.87
2018-05-23T03:26:39.660Z,1013.89
2018-05-23T03:27:39.578Z,1013.95
2018-05-23T03:28:39.506Z,1013.95
2018-05-23T03:29:39.417Z,1013.95
2018-05-23T03:30:39.341Z,1013.95
2018-05-23T03:31:39.255Z,1013.99
2018-05-23T03:32:39.183Z,1014.00
2018-05-23T03:33:39.104Z,1014.02
2018-05-23T03:34:39.019Z,1014.00
2018-05-23T03:35:38.942Z,1013.98
2018-05-23T03:36:38.870Z,1013.97
2018-05-23T03:37:38.779Z,1014.03
2018-05-23T03:38:38.709Z,1014.02
2018-05-23T03:39:38.619Z,1014.03
2018-05-23T03:40:38.544Z,1014.05
2018-05-23T03:41:38.533Z,1014.09
2018-05-23T03:42:38.381Z,1014.07
2018-05-23T03:43:38.305Z,1014.07
2018-05-23T03:44:38.230Z,1014.07
2018-05-23T03:45:38.144Z,1014.08
2018-05-23T03:46:38.070Z,1014.07
2018-05-23T03:47:37.983Z,1014.09
2018-05-23T03:48:37.906Z,1014.13
2018-05-23T03:49:37.832Z,1014.14
2018-05-23T03:50:37.745Z,1014.14
2018-05-23T03:51:37.671Z,1014.15
2018-05-23T03:52:37.595Z,1014.16
2018-05-23T03:53:37.506Z,1014.18
2018-05-23T03:54:37.432Z,1014.14
2018-05-23T03:55:37.356Z,1014.18
2018-05-23T03:56:37.271Z,1014.15
2018-05-23T03:57:37.195Z,1014.17
2018-05-23T03:58:37.119Z,1014.22
2018-05-23T03:59:37.045Z,1014.24
2018-05-23T04:00:37.035Z,1014.21
2018-05-23T04:01:36.870Z,1014.25
2018-05-23T04:02:36.795Z,1014.26
2018-05-23T04:03:36.720Z,1014.28
2018-05-23T04:04:36.633Z,1014.30
2018-05-23T04:05:36.557Z,1014.33
2018-05-23T04:06:36.482Z,1014.34
2018-05-23T04:07:36.395Z,1014.32
2018-05-23T04:08:36.321Z,1014.35
2018-05-23T04:09:36.326Z,1014.32
2018-05-23T04:10:36.161Z,1014.35
2018-05-23T04:11:36.093Z,1014.36
2018-05-23T04:12:35.996Z,1014.37
2018-05-23T04:13:35.921Z,1014.42
2018-05-23T04:14:35.847Z,1014.42
2018-05-23T04:15:35.758Z,1014.41
2018-05-23T04:16:35.684Z,1014.39
2018-05-23T04:17:35.608Z,1014.40
2018-05-23T04:18:35.521Z,1014.42
2018-05-23T04:19:35.447Z,1014.41
2018-05-23T04:20:35.359Z,1014.45
2018-05-23T04:21:35.289Z,1014.48
2018-05-23T04:22:35.209Z,1014.48
2018-05-23T04:23:35.123Z,1014.49
2018-05-23T04:24:35.048Z,1014.49
2018-05-23T04:25:34.973Z,1014.50
2018-05-23T04:26:34.885Z,1014.51
2018-05-23T04:27:34.810Z,1014.51
2018-05-23T04:28:34.735Z,1014.48
2018-05-23T04:29:34.648Z,1014.49
2018-05-23T04:30:34.573Z,1014.47
2018-05-23T04:31:34.503Z,1014.47
2018-05-23T04:32:34.411Z,1014.45
2018-05-23T04:33:34.337Z,1014.41
2018-05-23T04:34:34.255Z,1014.40
2018-05-23T04:35:34.174Z,1014.45
2018-05-23T04:36:34.103Z,1014.44
2018-05-23T04:37:34.024Z,1014.47
2018-05-23T04:38:33.937Z,1014.51
2018-05-23T04:39:33.861Z,1014.56
2018-05-23T04:40:33.775Z,1014.58
2018-05-23T04:41:33.699Z,1014.61
2018-05-23T04:42:33.626Z,1014.58
2018-05-23T04:43:33.538Z,1014.64
2018-05-23T04:44:33.462Z,1014.63
2018-05-23T04:45:33.390Z,1014.67
2018-05-23T04:46:33.313Z,1014.66
2018-05-23T04:47:33.225Z,1014.75
2018-05-23T04:48:33.151Z,1014.74
2018-05-23T04:49:33.075Z,1014.72
2018-05-23T04:50:32.993Z,1014.71
2018-05-23T04:51:32.914Z,1014.76
2018-05-23T04:52:32.852Z,1014.74
2018-05-23T04:53:32.763Z,1014.78
2018-05-23T04:54:32.678Z,1014.77
2018-05-23T04:55:32.601Z,1014.75
2018-05-23T04:56:32.526Z,1014.77
2018-05-23T04:57:32.452Z,1014.80
2018-05-23T04:58:32.366Z,1014.79
2018-05-23T04:59:32.289Z,1014.80
2018-05-23T05:00:32.214Z,1014.82
2018-05-23T05:01:32.127Z,1014.82
2018-05-23T05:02:32.053Z,1014.75
2018-05-23T05:03:31.978Z,1014.78
2018-05-23T05:04:31.903Z,1014.82
2018-05-23T05:05:31.822Z,1014.78
2018-05-23T05:06:31.740Z,1014.81
2018-05-23T05:07:31.664Z,1014.87
2018-05-23T05:08:31.605Z,1014.86
2018-05-23T05:09:31.503Z,1014.88
2018-05-23T05:10:31.432Z,1014.90
2018-05-23T05:11:31.353Z,1014.92
2018-05-23T05:12:31.278Z,1014.93
2018-05-23T05:13:31.191Z,1014.93
2018-05-23T05:14:31.116Z,1014.96
2018-05-23T05:15:31.054Z,1014.99
2018-05-23T05:16:30.955Z,1014.98
2018-05-23T05:17:30.882Z,1014.99
2018-05-23T05:18:30.805Z,1015.00
2018-05-23T05:19:30.730Z,1015.00
2018-05-23T05:20:30.642Z,1015.02
2018-05-23T05:21:30.566Z,1015.02
2018-05-23T05:22:30.491Z,1015.05
2018-05-23T05:23:30.417Z,1015.04
2018-05-23T05:24:30.334Z,1015.08
2018-05-23T05:25:30.255Z,1015.07
2018-05-23T05:26:30.180Z,1015.11
2018-05-23T05:27:30.094Z,1015.13
2018-05-23T05:28:30.017Z,1015.12
2018-05-23T05:29:29.942Z,1015.13
2018-05-23T05:30:29.867Z,1015.13
2018-05-23T05:31:29.782Z,1015.16
2018-05-23T05:32:29.705Z,1015.17
2018-05-23T05:33:29.633Z,1015.20
2018-05-23T05:34:29.560Z,1015.20
2018-05-23T05:35:29.468Z,1015.21
2018-05-23T05:36:29.394Z,1015.20
2018-05-23T05:37:29.319Z,1015.23
2018-05-23T05:38:29.243Z,1015.24
2018-05-23T05:39:29.156Z,1015.23
2018-05-23T05:40:29.085Z,1015.24
2018-05-23T05:41:29.006Z,1015.26
2018-05-23T05:42:28.936Z,1015.28
2018-05-23T05:43:28.844Z,1015.23
2018-05-23T05:44:28.769Z,1015.30
2018-05-23T05:45:28.707Z,1015.30
2018-05-23T05:46:28.622Z,1015.29
2018-05-23T05:47:28.539Z,1015.34
2018-05-23T05:48:28.457Z,1015.34
2018-05-23T05:49:28.387Z,1015.39
2018-05-23T05:50:28.307Z,1015.42
2018-05-23T05:51:28.219Z,1015.44
2018-05-23T05:52:28.144Z,1015.44
2018-05-23T05:53:28.069Z,1015.49
2018-05-23T05:54:28.010Z,1015.47
2018-05-23T05:55:27.908Z,1015.51
2018-05-23T05:56:27.839Z,1015.53
2018-05-23T05:57:27.758Z,1015.50
2018-05-23T05:58:27.683Z,1015.49
2018-05-23T05:59:27.609Z,1015.52
2018-05-23T06:00:27.525Z,1015.49
2018-05-23T06:01:27.446Z,1015.50
2018-05-23T06:02:27.373Z,1015.54
2018-05-23T06:03:27.284Z,1015.50
2018-05-23T06:04:27.208Z,1015.51
2018-05-23T06:05:27.139Z,1015.54
2018-05-23T06:06:27.062Z,1015.60
2018-05-23T06:07:26.972Z,1015.55
2018-05-23T06:08:26.910Z,1015.58
2018-05-23T06:09:26.896Z,1015.55
2018-05-23T06:10:26.746Z,1015.62
2018-05-23T06:11:26.672Z,1015.63
2018-05-23T06:12:26.585Z,1015.62
2018-05-23T06:13:26.510Z,1015.67
2018-05-23T06:14:26.444Z,1015.67
2018-05-23T06:15:26.364Z,1015.67
2018-05-23T06:16:26.273Z,1015.66
2018-05-23T06:17:26.197Z,1015.66
2018-05-23T06:18:26.123Z,1015.69
2018-05-23T06:19:26.047Z,1015.70
2018-05-23T06:20:25.974Z,1015.73
2018-05-23T06:21:25.886Z,1015.73
2018-05-23T06:22:25.846Z,1015.73
2018-05-23T06:23:25.736Z,1015.77
2018-05-23T06:24:25.662Z,1015.74
2018-05-23T06:25:25.574Z,1015.76
2018-05-23T06:26:25.498Z,1015.76
2018-05-23T06:27:25.425Z,1015.73
2018-05-23T06:28:25.348Z,1015.78
2018-05-23T06:29:25.273Z,1015.77
2018-05-23T06:30:25.258Z,1015.77
2018-05-23T06:31:25.113Z,1015.77
2018-05-23T06:32:25.038Z,1015.79
2018-05-23T06:33:24.963Z,1015.79
2018-05-23T06:34:24.887Z,1015.82
2018-05-23T06:35:24.813Z,1015.84
2018-05-23T06:36:24.725Z,1015.82
2018-05-23T06:37:24.649Z,1015.87
2018-05-23T06:38:24.579Z,1015.92
2018-05-23T06:39:24.513Z,1015.92
2018-05-23T06:40:24.427Z,1015.96
2018-05-23T06:41:24.339Z,1015.98
2018-05-23T06:42:24.264Z,1015.96
2018-05-23T06:43:24.201Z,1015.94
2018-05-23T06:44:24.113Z,1015.99
2018-05-23T06:45:24.039Z,1016.00
2018-05-23T06:46:23.964Z,1016.02
2018-05-23T06:47:23.880Z,1015.99
2018-05-23T06:48:23.800Z,1016.03
2018-05-23T06:49:23.740Z,1016.03
2018-05-23T06:50:23.652Z,1016.06
2018-05-23T06:51:23.577Z,1016.02
2018-05-23T06:52:23.501Z,1016.05
2018-05-23T06:53:23.478Z,1016.07
2018-05-23T06:54:23.340Z,1016.04
2018-05-23T06:55:23.265Z,1016.04
2018-05-23T06:56:23.193Z,1016.05
2018-05-23T06:57:23.116Z,1016.06
2018-05-23T06:58:23.047Z,1016.05
2018-05-23T06:59:22.953Z,1016.01
2018-05-23T07:00:22.877Z,1016.04
2018-05-23T07:01:22.802Z,1016.03
2018-05-23T07:02:22.732Z,1016.06
2018-05-23T07:03:22.652Z,1016.03
2018-05-23T07:04:22.578Z,1016.08
2018-05-23T07:05:22.502Z,1016.03
2018-05-23T07:06:22.428Z,1016.01
2018-05-23T07:07:22.341Z,1016.03
2018-05-23T07:08:22.267Z,1016.03
2018-05-23T07:09:22.191Z,1016.05
2018-05-23T07:10:22.120Z,1016.10
2018-05-23T07:11:22.041Z,1016.07
2018-05-23T07:12:21.966Z,1016.09
2018-05-23T07:13:21.891Z,1016.06
2018-05-23T07:14:21.826Z,1016.07
2018-05-23T07:15:21.742Z,1016.04
2018-05-23T07:16:21.656Z,1016.05
2018-05-23T07:17:21.580Z,1016.06
2018-05-23T07:18:21.505Z,1016.03
2018-05-23T07:19:21.431Z,1016.11
2018-05-23T07:20:21.355Z,1016.10
2018-05-23T07:21:21.279Z,1016.09
2018-05-23T07:22:21.204Z,1016.13
2018-05-23T07:23:21.130Z,1016.18
2018-05-23T07:24:21.055Z,1016.14
2018-05-23T07:25:20.980Z,1016.15
2018-05-23T07:26:20.905Z,1016.19
2018-05-23T07:27:20.840Z,1016.18
2018-05-23T07:28:20.755Z,1016.24
2018-05-23T07:29:20.681Z,1016.23
2018-05-23T07:30:20.605Z,1016.23
2018-05-23T07:31:20.533Z,1016.30
2018-05-23T07:32:20.455Z,1016.23
2018-05-23T07:33:20.381Z,1016.28
2018-05-23T07:34:20.306Z,1016.28
2018-05-23T07:35:20.231Z,1016.35
2018-05-23T07:36:20.158Z,1016.29
2018-05-23T07:37:20.095Z,1016.35
2018-05-23T07:38:20.104Z,1016.34
2018-05-23T07:39:19.945Z,1016.36
2018-05-23T07:40:19.869Z,1016.35
2018-05-23T07:41:19.807Z,1016.41
2018-05-23T07:42:19.732Z,1016.37
2018-05-23T07:43:19.660Z,1016.37
2018-05-23T07:44:19.595Z,1016.39
2018-05-23T07:45:19.521Z,1016.38
2018-05-23T07:46:19.445Z,1016.41
2018-05-23T07:47:19.382Z,1016.44
2018-05-23T07:48:19.307Z,1016.41
2018-05-23T07:49:19.245Z,1016.42
2018-05-23T07:50:19.171Z,1016.35
2018-05-23T07:51:19.097Z,1016.40
2018-05-23T07:52:19.033Z,1016.45
2018-05-23T07:53:18.958Z,1016.46
2018-05-23T07:54:18.896Z,1016.36
2018-05-23T07:55:18.825Z,1016.43
2018-05-23T07:56:18.758Z,1016.40
2018-05-23T07:57:18.685Z,1016.42
2018-05-23T07:58:18.623Z,1016.42
2018-05-23T07:59:18.547Z,1016.38
2018-05-23T08:00:18.496Z,1016.45
2018-05-23T08:01:18.421Z,1016.50
2018-05-23T08:02:18.347Z,1016.45
2018-05-23T08:03:18.272Z,1016.48
2018-05-23T08:04:18.209Z,1016.49
2018-05-23T08:05:18.136Z,1016.53
2018-05-23T08:06:18.073Z,1016.49
2018-05-23T08:07:18.009Z,1016.55
2018-05-23T08:08:17.934Z,1016.54
2018-05-23T08:09:17.873Z,1016.55
2018-05-23T08:10:17.804Z,1016.53
2018-05-23T08:11:17.735Z,1016.53
2018-05-23T08:12:17.673Z,1016.58
2018-05-23T08:13:17.598Z,1016.56
2018-05-23T08:14:17.535Z,1016.56
2018-05-23T08:15:17.473Z,1016.52
2018-05-23T08:16:17.398Z,1016.57
2018-05-23T08:17:17.336Z,1016.56
2018-05-23T08:18:17.262Z,1016.53
2018-05-23T08:19:17.199Z,1016.52
2018-05-23T08:20:17.136Z,1016.54
2018-05-23T08:21:17.062Z,1016.58
2018-05-23T08:22:17.000Z,1016.59
2018-05-23T08:23:16.936Z,1016.55
2018-05-23T08:24:16.936Z,1016.57
2018-05-23T08:25:16.800Z,1016.56
2018-05-23T08:26:16.736Z,1016.61
2018-05-23T08:27:16.670Z,1016.59
2018-05-23T08:28:16.600Z,1016.65
2018-05-23T08:29:16.537Z,1016.65
2018-05-23T08:30:16.477Z,1016.70
2018-05-23T08:31:16.401Z,1016.69
2018-05-23T08:32:16.337Z,1016.67
2018-05-23T08:33:16.277Z,1016.65
2018-05-23T08:34:16.213Z,1016.66
2018-05-23T08:35:16.139Z,1016.69
2018-05-23T08:36:16.079Z,1016.68
2018-05-23T08:37:16.014Z,1016.69
2018-05-23T08:38:15.940Z,1016.70
2018-05-23T08:39:15.889Z,1016.72
2018-05-23T08:40:15.836Z,1016.72
2018-05-23T08:41:15.756Z,1016.69
2018-05-23T08:42:15.688Z,1016.74
2018-05-23T08:43:15.626Z,1016.75
2018-05-23T08:44:15.552Z,1016.76
2018-05-23T08:45:15.488Z,1016.75
2018-05-23T08:46:15.429Z,1016.73
2018-05-23T08:47:15.353Z,1016.78
2018-05-23T08:48:15.293Z,1016.78
2018-05-23T08:49:15.227Z,1016.77
2018-05-23T08:50:15.165Z,1016.75
2018-05-23T08:51:15.106Z,1016.73
2018-05-23T08:52:15.028Z,1016.80
2018-05-23T08:53:14.978Z,1016.83
2018-05-23T08:54:14.912Z,1016.85
2018-05-23T08:55:14.839Z,1016.87
2018-05-23T08:56:14.778Z,1016.84
2018-05-23T08:57:14.706Z,1016.85
2018-05-23T08:58:14.640Z,1016.83
2018-05-23T08:59:14.579Z,1016.87
2018-05-23T09:00:14.515Z,1016.91
2018-05-23T09:01:14.453Z,1016.95
2018-05-23T09:02:14.379Z,1016.91
2018-05-23T09:03:14.318Z,1016.93
2018-05-23T09:04:14.253Z,1016.96
2018-05-23T09:05:14.194Z,1016.99
2018-05-23T09:06:14.129Z,1016.97
2018-05-23T09:07:14.054Z,1016.95
2018-05-23T09:08:13.991Z,1017.05
2018-05-23T09:09:13.930Z,1017.07
2018-05-23T09:10:13.867Z,1017.07
2018-05-23T09:11:13.807Z,1017.10
2018-05-23T09:12:13.755Z,1017.11
2018-05-23T09:13:13.667Z,1017.14
2018-05-23T09:14:13.604Z,1017.13
2018-05-23T09:15:13.542Z,1017.13
2018-05-23T09:16:13.483Z,1017.15
2018-05-23T09:17:13.418Z,1017.19
2018-05-23T09:18:13.356Z,1017.17
2018-05-23T09:19:13.308Z,1017.19
2018-05-23T09:20:13.230Z,1017.19
2018-05-23T09:21:13.167Z,1017.18
2018-05-23T09:22:13.106Z,1017.23
2018-05-23T09:23:13.031Z,1017.20
2018-05-23T09:24:12.967Z,1017.24
2018-05-23T09:25:12.906Z,1017.19
2018-05-23T09:26:12.843Z,1017.25
2018-05-23T09:27:12.781Z,1017.23
2018-05-23T09:28:12.718Z,1017.26
2018-05-23T09:29:12.659Z,1017.26
2018-05-23T09:30:12.606Z,1017.20
2018-05-23T09:31:12.535Z,1017.25
2018-05-23T09:32:12.483Z,1017.30
2018-05-23T09:33:12.407Z,1017.25
2018-05-23T09:34:12.346Z,1017.19
2018-05-23T09:35:12.270Z,1017.23
2018-05-23T09:36:12.207Z,1017.06
2018-05-23T09:37:12.145Z,1016.96
2018-05-23T09:38:12.090Z,1016.94
2018-05-23T09:39:12.111Z,1016.86
2018-05-23T09:40:11.958Z,1016.91
2018-05-23T09:41:11.895Z,1016.99
2018-05-23T09:42:11.833Z,1016.96
2018-05-23T09:43:11.769Z,1016.97
2018-05-23T09:44:11.709Z,1016.94
2018-05-23T09:45:11.677Z,1016.92
2018-05-23T09:46:11.570Z,1016.97
2018-05-23T09:47:11.508Z,1016.90
2018-05-23T09:48:11.447Z,1016.90
2018-05-23T09:49:11.371Z,1016.92
2018-05-23T09:50:11.308Z,1016.88
2018-05-23T09:51:11.246Z,1016.87
2018-05-23T09:52:11.172Z,1016.96
2018-05-23T09:53:11.113Z,1016.90
2018-05-23T09:54:11.046Z,1016.84
2018-05-23T09:55:11.055Z,1016.89
2018-05-23T09:56:10.909Z,1016.94
2018-05-23T09:57:10.847Z,1016.90
2018-05-23T09:58:10.771Z,1017.24
2018-05-23T09:59:10.710Z,1017.32
2018-05-23T10:00:10.635Z,1017.38
2018-05-23T10:01:10.573Z,1017.36
2018-05-23T10:02:10.497Z,1017.08
2018-05-23T10:03:10.434Z,1016.94
2018-05-23T10:04:10.360Z,1016.89
2018-05-23T10:05:10.297Z,1016.92
2018-05-23T10:06:10.237Z,1016.83
2018-05-23T10:07:10.160Z,1016.90
2018-05-23T10:08:10.097Z,1016.85
2018-05-23T10:09:10.024Z,1016.87
2018-05-23T10:10:09.961Z,1016.82
2018-05-23T10:11:09.886Z,1016.82
2018-05-23T10:12:09.823Z,1016.84
2018-05-23T10:13:09.750Z,1016.82
2018-05-23T10:14:09.687Z,1016.87
2018-05-23T10:15:09.613Z,1016.87
2018-05-23T10:16:09.548Z,1016.91
2018-05-23T10:17:09.475Z,1016.91
2018-05-23T10:18:09.412Z,1016.91
2018-05-23T10:19:09.337Z,1016.88
2018-05-23T10:20:09.274Z,1016.91
2018-05-23T10:21:09.199Z,1016.85
2018-05-23T10:22:09.137Z,1016.83
2018-05-23T10:23:09.064Z,1016.81
2018-05-23T10:24:08.999Z,1016.85
2018-05-23T10:25:08.937Z,1016.87
2018-05-23T10:26:08.867Z,1016.92
2018-05-23T10:27:08.788Z,1016.95
2018-05-23T10:28:08.714Z,1016.91
2018-05-23T10:29:08.653Z,1016.91
2018-05-23T10:30:08.576Z,1016.89
2018-05-23T10:31:08.514Z,1016.91
2018-05-23T10:32:08.439Z,1016.91
2018-05-23T10:33:08.373Z,1016.91
2018-05-23T10:34:08.300Z,1016.96
2018-05-23T10:35:08.240Z,1016.95
2018-05-23T10:36:08.169Z,1016.95
2018-05-23T10:37:08.093Z,1016.96
2018-05-23T10:38:08.015Z,1017.01
2018-05-23T10:39:07.998Z,1017.01
2018-05-23T10:40:07.882Z,1016.97
2018-05-23T10:41:07.815Z,1017.09
2018-05-23T10:42:07.743Z,1017.04
2018-05-23T10:43:07.670Z,1017.30
2018-05-23T10:44:07.602Z,1017.37
2018-05-23T10:45:07.616Z,1017.36
2018-05-23T10:46:07.542Z,1017.38
2018-05-23T10:47:07.402Z,1017.40
2018-05-23T10:48:07.341Z,1017.29
2018-05-23T10:49:07.272Z,1017.24
2018-05-23T10:50:07.191Z,1017.25
2018-05-23T10:51:07.142Z,1017.32
2018-05-23T10:52:07.163Z,1017.32
2018-05-23T10:53:06.992Z,1017.30
2018-05-23T10:54:06.930Z,1017.34
2018-05-23T10:55:06.867Z,1017.34
2018-05-23T10:56:06.792Z,1017.30
2018-05-23T10:57:06.782Z,1017.33
2018-05-23T10:58:06.667Z,1017.31
2018-05-23T10:59:06.604Z,1017.35
2018-05-23T11:00:06.619Z,1017.31
2018-05-23T11:01:06.472Z,1017.27
2018-05-23T11:02:06.404Z,1017.35
2018-05-23T11:03:06.342Z,1017.29
2018-05-23T11:04:06.280Z,1017.37
2018-05-23T11:05:06.218Z,1017.43
2018-05-23T11:06:06.155Z,1017.35
2018-05-23T11:07:06.093Z,1017.37
2018-05-23T11:08:06.020Z,1017.31
2018-05-23T11:09:05.985Z,1017.35
2018-05-23T11:10:05.897Z,1017.36
2018-05-23T11:11:05.848Z,1017.36
2018-05-23T11:12:05.775Z,1017.35
2018-05-23T11:13:05.705Z,1017.37
2018-05-23T11:14:05.646Z,1017.40
2018-05-23T11:15:05.610Z,1017.41
2018-05-23T11:16:05.519Z,1017.41
2018-05-23T11:17:05.457Z,1017.42
2018-05-23T11:18:05.395Z,1017.40
2018-05-23T11:19:05.332Z,1017.42
2018-05-23T11:20:05.270Z,1017.42
2018-05-23T11:21:05.207Z,1017.39
2018-05-23T11:22:05.150Z,1017.31
2018-05-23T11:23:05.081Z,1017.31
2018-05-23T11:24:05.021Z,1017.35
2018-05-23T11:25:04.963Z,1017.32
2018-05-23T11:26:04.911Z,1017.33
2018-05-23T11:27:04.833Z,1017.29
2018-05-23T11:28:04.782Z,1017.28
2018-05-23T11:29:04.720Z,1017.33
2018-05-23T11:30:04.659Z,1017.34
2018-05-23T11:31:04.599Z,1017.28
2018-05-23T11:32:04.536Z,1017.25
2018-05-23T11:33:04.471Z,1017.32
2018-05-23T11:34:04.407Z,1017.31
2018-05-23T11:35:04.346Z,1017.24
2018-05-23T11:36:04.283Z,1017.25
2018-05-23T11:37:04.221Z,1017.24
2018-05-23T11:38:04.171Z,1017.24
2018-05-23T11:39:04.100Z,1017.23
2018-05-23T11:40:04.033Z,1017.15
2018-05-23T11:41:03.971Z,1017.16
2018-05-23T11:42:03.908Z,1017.16
2018-05-23T11:43:03.849Z,1017.12
2018-05-23T11:44:03.789Z,1017.10
2018-05-23T11:45:03.734Z,1017.06
2018-05-23T11:46:03.673Z,1017.11
2018-05-23T11:47:03.610Z,1017.12
2018-05-23T11:48:03.547Z,1017.12
2018-05-23T11:49:03.485Z,1017.14
2018-05-23T11:50:03.423Z,1017.12
2018-05-23T11:51:03.361Z,1017.04
2018-05-23T11:52:03.298Z,1017.08
2018-05-23T11:53:03.235Z,1017.09
2018-05-23T11:54:03.174Z,1017.11
2018-05-23T11:55:03.110Z,1017.11
2018-05-23T11:56:03.048Z,1017.16
2018-05-23T11:57:02.989Z,1017.13
2018-05-23T11:58:02.935Z,1017.12
2018-05-23T11:59:02.875Z,1017.12
2018-05-23T12:00:02.810Z,1017.13
2018-05-23T12:01:02.749Z,1017.16
2018-05-23T12:02:02.686Z,1017.18
2018-05-23T12:03:02.624Z,1017.13
2018-05-23T12:04:02.560Z,1017.11
2018-05-23T12:05:02.500Z,1017.12